Time;durP1;ratioP1;P1;durP2;ratioP2;P2;SDS_P1;SDS_P2;PMS_P1;PMS_P2;Temp;Humidity;BMP_temperature;BMP_pressure;BME280_temperature;BME280_humidity;BME280_pressure;Samples;Min_cycle;Max_cycle;Signal;HPM_P1;HPM_P2
2023/03/15 00:10:03;;;;;;;4.10;1.50;;;;;;;6.79;51.95;99913.32;104895;1267;613992;-50
2023/03/15 00:12:33;;;;;;;3.50;1.10;;;;;;;6.96;51.64;99911.17;108477;1250;246580;-51
2023/03/15 00:15:00;;;;;;;9.60;3.50;;;;;;;6.93;51.64;99908.48;107264;1244;59366;-51
2023/03/15 00:17:27;;;;;;;7.00;3.40;;;;;;;6.86;51.71;99904.55;107023;1248;64695;-53
2023/03/15 00:19:54;;;;;;;9.40;3.80;;;;;;;6.80;51.88;99901.35;107178;1248;62590;-51
2023/03/15 00:22:22;;;;;;;5.00;1.80;;;;;;;6.74;52.05;99898.86;107110;1244;64931;-51
2023/03/15 00:24:48;;;;;;;7.20;3.60;;;;;;;6.67;52.16;99890.59;107048;1247;59269;-52
2023/03/15 00:27:15;;;;;;;6.70;3.30;;;;;;;6.61;52.30;99890.49;107051;1244;59700;-51
2023/03/15 00:29:42;;;;;;;3.60;1.30;;;;;;;6.56;52.41;99891.27;107204;1244;64472;-51
2023/03/15 00:32:09;;;;;;;6.00;2.70;;;;;;;6.48;52.63;99890.16;107284;1244;62473;-52
2023/03/15 00:34:40;;;;;;;8.60;3.60;;;;;;;6.42;52.74;99883.85;107611;1245;65084;-51
2023/03/15 00:37:07;;;;;;;6.90;1.20;;;;;;;6.36;53.04;99876.79;107088;1246;59720;-51
2023/03/15 00:39:36;;;;;;;8.10;3.80;;;;;;;6.29;53.17;99879.31;107214;1241;59664;-52
2023/03/15 00:42:03;;;;;;;8.10;3.20;;;;;;;6.25;53.37;99883.25;107332;1241;65361;-51
2023/03/15 00:44:34;;;;;;;5.90;2.00;;;;;;;6.21;53.44;99883.72;107460;1244;62422;-51
2023/03/15 00:47:01;;;;;;;7.90;3.50;;;;;;;6.17;53.64;99885.75;107228;1244;65020;-51
2023/03/15 00:49:32;;;;;;;4.60;1.40;;;;;;;6.14;53.69;99884.23;107256;1244;59664;-49
2023/03/15 00:52:01;;;;;;;8.20;4.10;;;;;;;6.11;53.88;99883.70;107157;1244;61037;-51
2023/03/15 00:54:28;;;;;;;9.30;4.30;;;;;;;6.08;54.00;99876.11;107328;1244;74084;-50
2023/03/15 00:56:56;;;;;;;5.90;2.40;;;;;;;6.05;54.08;99872.64;107840;1240;62729;-51
2023/03/15 00:59:23;;;;;;;8.10;3.70;;;;;;;6.03;54.34;99870.16;108734;1237;65271;-51
2023/03/15 01:01:50;;;;;;;6.80;3.90;;;;;;;6.00;54.47;99870.40;107627;1240;59531;-51
2023/03/15 01:04:18;;;;;;;7.00;2.40;;;;;;;5.98;54.56;99875.09;108563;1240;59693;-51
2023/03/15 01:06:46;;;;;;;5.70;1.80;;;;;;;5.95;54.74;99871.76;107804;1240;65053;-51
2023/03/15 01:09:13;;;;;;;7.50;3.80;;;;;;;5.93;54.90;99873.06;109268;1240;62549;-50
2023/03/15 01:11:40;;;;;;;4.70;1.60;;;;;;;5.92;55.05;99872.09;107700;1240;64741;-54
2023/03/15 01:14:08;;;;;;;5.30;1.50;;;;;;;5.91;55.06;99871.48;107804;1240;59923;-51
2023/03/15 01:16:39;;;;;;;7.20;3.90;;;;;;;5.89;55.16;99879.84;107968;1241;59635;-51
2023/03/15 01:19:11;;;;;;;5.70;1.90;;;;;;;5.88;55.28;99885.99;108134;1240;65417;-51
2023/03/15 01:21:38;;;;;;;7.00;4.10;;;;;;;5.86;55.46;99883.33;107951;1241;62639;-52
2023/03/15 01:24:05;;;;;;;7.20;1.60;;;;;;;5.84;55.40;99885.91;108007;1241;63936;-51
2023/03/15 01:26:33;;;;;;;7.00;4.00;;;;;;;5.88;55.34;99885.41;107821;1238;59688;-50
2023/03/15 01:28:59;;;;;;;7.80;1.80;;;;;;;5.96;55.36;99880.21;107797;1240;59639;-51
2023/03/15 01:31:28;;;;;;;8.00;4.30;;;;;;;6.05;55.30;99882.38;107684;1241;63719;-50
2023/03/15 01:33:57;;;;;;;6.20;3.50;;;;;;;6.11;55.28;99886.30;107580;1242;61203;-51
2023/03/15 01:36:24;;;;;;;7.10;3.80;;;;;;;6.15;55.21;99884.86;108016;1238;63773;-50
2023/03/15 01:38:53;;;;;;;4.70;1.70;;;;;;;6.16;55.17;99878.70;108009;1238;59802;-51
2023/03/15 01:41:26;;;;;;;7.40;1.80;;;;;;;6.18;55.07;99876.84;107645;1241;59654;-51
2023/03/15 01:43:53;;;;;;;7.20;3.80;;;;;;;6.16;54.92;99882.16;108016;1240;64963;-52
2023/03/15 01:46:25;;;;;;;11.20;4.20;;;;;;;6.12;54.89;99887.45;107649;1240;62338;-51
2023/03/15 01:49:11;;;;;;;8.20;4.10;;;;;;;6.10;54.96;99892.51;107834;1240;64774;-51
2023/03/15 01:51:45;;;;;;;7.60;1.90;;;;;;;6.07;55.07;99894.98;107884;1241;59618;-49
2023/03/15 01:54:38;;;;;;;4.70;1.50;;;;;;;6.01;55.27;99894.34;107857;1238;59720;-49
2023/03/15 01:57:25;;;;;;;7.10;4.60;;;;;;;5.93;55.32;99894.14;107794;1240;65073;-50
2023/03/15 01:59:56;;;;;;;6.50;2.00;;;;;;;5.86;55.41;99892.37;111629;1240;62655;-51
2023/03/15 02:02:23;;;;;;;9.10;4.80;;;;;;;5.81;55.68;99888.58;111695;1238;64949;-51
2023/03/15 02:04:59;;;;;;;5.70;1.60;;;;;;;5.78;55.85;99891.52;108999;1240;59300;-50
2023/03/15 02:07:26;;;;;;;6.90;2.20;;;;;;;5.75;55.87;99889.64;107864;1241;59745;-50
2023/03/15 02:10:04;;;;;;;7.90;4.30;;;;;;;5.71;56.04;99886.20;111713;1238;65450;-51
2023/03/15 02:12:38;;;;;;;5.70;2.00;;;;;;;5.68;56.09;99885.25;111576;1240;62555;-51
2023/03/15 02:15:06;;;;;;;10.30;4.50;;;;;;;5.64;56.23;99888.84;111648;1237;64776;-52
2023/03/15 02:17:42;;;;;;;8.90;5.10;;;;;;;5.63;56.40;99887.19;111457;1238;57380;-51
2023/03/15 02:20:31;;;;;;;7.50;2.30;;;;;;;5.62;56.43;99887.89;111592;1238;57573;-50
2023/03/15 02:23:07;;;;;;;5.60;2.20;;;;;;;5.69;56.31;99888.65;111729;1237;65405;-51
2023/03/15 02:25:45;;;;;;;15.00;4.50;;;;;;;5.79;56.27;99886.27;109797;1240;61313;-51
2023/03/15 02:28:13;;;;;;;13.50;6.10;;;;;;;5.89;56.20;99884.17;107991;1240;65007;-51
2023/03/15 02:30:42;;;;;;;10.00;4.20;;;;;;;5.94;56.17;99876.67;107773;1242;59798;-48
2023/03/15 02:33:14;;;;;;;7.30;4.70;;;;;;;5.94;56.11;99875.08;110785;1237;59650;-51
2023/03/15 02:35:41;;;;;;;8.90;4.60;;;;;;;5.90;56.03;99877.30;107925;1238;65417;-51
2023/03/15 02:38:11;;;;;;;4.20;1.50;;;;;;;5.82;56.04;99874.35;107774;1241;63890;-51
2023/03/15 02:40:39;;;;;;;7.50;3.80;;;;;;;5.71;56.16;99870.77;107859;1237;64823;-49
2023/03/15 02:43:17;;;;;;;7.50;4.00;;;;;;;5.58;56.35;99865.88;107851;1241;59632;-49
2023/03/15 02:45:45;;;;;;;5.20;1.80;;;;;;;5.46;56.63;99862.02;107740;1243;59660;-51
2023/03/15 02:48:12;;;;;;;8.20;4.30;;;;;;;5.34;56.89;99856.86;107707;1237;64276;-51
2023/03/15 02:50:44;;;;;;;5.20;1.90;;;;;;;5.26;57.22;99853.80;107936;1238;62550;-50
2023/03/15 02:53:11;;;;;;;8.40;4.40;;;;;;;5.16;57.51;99849.00;107641;1244;64912;-51
2023/03/15 02:55:38;;;;;;;5.20;1.50;;;;;;;5.09;57.75;99846.05;108780;1241;59572;-51
2023/03/15 02:58:06;;;;;;;9.60;4.60;;;;;;;5.03;57.94;99849.50;108637;1242;59726;-51
2023/03/15 03:00:33;;;;;;;5.40;2.00;;;;;;;4.97;58.24;99848.88;107812;1240;65293;-51
2023/03/15 03:03:01;;;;;;;7.10;2.70;;;;;;;4.94;58.31;99845.11;107897;1241;61375;-51
2023/03/15 03:05:28;;;;;;;7.80;5.10;;;;;;;4.90;58.43;99843.27;107920;1240;64904;-49
2023/03/15 03:07:55;;;;;;;7.50;4.60;;;;;;;4.87;58.48;99841.88;107833;1241;59982;-50
2023/03/15 03:10:22;;;;;;;5.10;1.60;;;;;;;4.89;58.54;99845.08;107821;1238;59752;-50
2023/03/15 03:12:52;;;;;;;4.30;1.40;;;;;;;4.92;58.62;99838.23;108010;1240;65292;-50
2023/03/15 03:15:24;;;;;;;8.50;4.30;;;;;;;4.96;58.75;99830.16;107947;1241;61392;-49
2023/03/15 03:17:53;;;;;;;8.60;4.70;;;;;;;5.05;58.74;99828.54;107804;1238;65040;-49
2023/03/15 03:20:22;;;;;;;7.70;2.50;;;;;;;5.11;58.65;99828.66;107847;1240;60220;-50
2023/03/15 03:22:54;;;;;;;5.70;1.90;;;;;;;5.13;58.61;99837.07;107796;1237;59655;-49
2023/03/15 03:25:25;;;;;;;8.20;4.90;;;;;;;5.12;58.51;99836.98;108239;1240;64303;-50
2023/03/15 03:27:55;;;;;;;5.60;2.40;;;;;;;5.08;58.50;99840.04;107958;1241;62528;-49
2023/03/15 03:30:23;;;;;;;5.90;2.10;;;;;;;5.02;58.53;99841.80;107745;1237;65728;-50
2023/03/15 03:32:51;;;;;;;10.20;5.20;;;;;;;4.93;58.61;99842.55;107831;1240;59642;-49
2023/03/15 03:35:20;;;;;;;6.80;2.70;;;;;;;4.83;58.87;99843.55;107733;1238;59678;-49
2023/03/15 03:37:47;;;;;;;10.10;6.10;;;;;;;4.73;58.98;99847.11;107768;1243;65271;-50
2023/03/15 03:40:22;;;;;;;6.30;2.60;;;;;;;4.65;59.29;99854.04;107952;1236;61834;-49
2023/03/15 03:42:49;;;;;;;5.50;2.10;;;;;;;4.56;59.44;99852.00;107704;1243;72337;-49
2023/03/15 03:45:17;;;;;;;6.40;2.40;;;;;;;4.47;59.72;99848.59;107815;1240;60343;-51
2023/03/15 03:47:50;;;;;;;6.60;2.20;;;;;;;4.42;60.13;99848.70;107643;1239;59700;-53
2023/03/15 03:50:17;;;;;;;5.80;2.50;;;;;;;4.39;60.38;99850.11;107848;1236;64863;-54
2023/03/15 03:52:45;;;;;;;17.80;6.60;;;;;;;4.37;60.31;99850.07;108017;1238;62680;-52
2023/03/15 03:55:18;;;;;;;7.70;2.90;;;;;;;4.36;60.34;99846.70;107595;1247;64674;-50
2023/03/15 03:57:45;;;;;;;7.10;3.40;;;;;;;4.37;60.26;99842.46;108279;1238;62112;-51
2023/03/15 04:00:18;;;;;;;7.40;2.70;;;;;;;4.44;60.42;99844.27;107972;1240;59773;-49
2023/03/15 04:02:47;;;;;;;6.10;2.20;;;;;;;4.53;60.40;99843.55;107970;1240;74045;-50
2023/03/15 04:05:16;;;;;;;9.90;6.20;;;;;;;4.60;60.32;99839.23;108492;1236;62353;-50
2023/03/15 04:07:44;;;;;;;9.30;2.20;;;;;;;4.65;60.22;99838.92;108105;1240;64823;-51
2023/03/15 04:10:15;;;;;;;13.00;6.20;;;;;;;4.65;60.32;99842.94;107793;1243;60280;-51
2023/03/15 04:12:45;;;;;;;13.70;3.30;;;;;;;4.63;60.46;99846.89;108295;1241;59823;-51
2023/03/15 04:15:14;;;;;;;12.80;6.30;;;;;;;4.60;60.49;99853.84;108060;1240;65245;-52
2023/03/15 04:17:41;;;;;;;10.50;3.80;;;;;;;4.59;60.46;99854.09;107808;1240;62223;-52
2023/03/15 04:20:11;;;;;;;7.60;3.40;;;;;;;4.56;60.62;99852.69;107861;1240;64742;-51
2023/03/15 04:22:48;;;;;;;6.00;2.50;;;;;;;4.50;60.79;99849.28;107945;1238;60503;-50
2023/03/15 04:25:25;;;;;;;8.30;3.40;;;;;;;4.44;60.96;99850.67;108081;1238;60462;-50
2023/03/15 04:28:09;;;;;;;9.30;3.70;;;;;;;4.42;61.12;99853.46;107754;1240;66161;-50
2023/03/15 04:30:57;;;;;;;15.00;6.90;;;;;;;4.38;61.18;99858.88;107694;1240;62515;-50
2023/03/15 04:33:36;;;;;;;9.70;3.20;;;;;;;4.36;61.38;99857.12;108005;1240;65585;-50
2023/03/15 04:36:07;;;;;;;12.60;7.50;;;;;;;4.37;61.39;99850.95;107825;1240;60456;-51
2023/03/15 04:38:47;;;;;;;7.10;2.00;;;;;;;4.44;61.54;99847.89;107571;1237;60447;-51
2023/03/15 04:41:41;;;;;;;13.90;3.80;;;;;;;4.54;61.50;99851.64;107778;1240;65870;-50
2023/03/15 04:44:33;;;;;;;10.50;2.40;;;;;;;4.65;61.58;99856.11;107403;1238;62706;-50
2023/03/15 04:47:04;;;;;;;9.80;3.50;;;;;;;4.76;61.61;99859.45;107755;1240;64606;-52
2023/03/15 04:49:46;;;;;;;14.40;8.10;;;;;;;4.83;61.40;99860.89;107732;1236;60644;-51
2023/03/15 04:52:39;;;;;;;11.40;3.60;;;;;;;4.86;61.27;99865.39;107674;1236;60426;-51
2023/03/15 04:55:30;;;;;;;11.00;3.50;;;;;;;4.88;61.25;99870.51;107911;1240;66454;-51
2023/03/15 04:57:57;;;;;;;9.40;3.40;;;;;;;4.88;61.24;99875.05;107726;1240;62234;-50
2023/03/15 05:00:47;;;;;;;17.10;8.90;;;;;;;4.89;61.29;99877.40;108156;1240;64923;-51
2023/03/15 05:03:27;;;;;;;19.80;4.90;;;;;;;4.94;61.31;99879.34;107770;1237;60443;-51
2023/03/15 05:06:13;;;;;;;;;;;;;;;4.95;61.30;99877.49;107799;1237;60410;-51
2023/03/15 05:09:03;;;;;;;10.90;3.10;;;;;;;4.95;61.35;99873.18;107917;1237;66194;-51
2023/03/15 05:11:50;;;;;;;8.50;3.60;;;;;;;4.93;61.51;99874.67;107765;1240;61361;-51
2023/03/15 05:14:35;;;;;;;16.50;8.50;;;;;;;4.94;61.59;99872.52;107872;1241;64822;-51
2023/03/15 05:17:14;;;;;;;9.00;2.90;;;;;;;4.97;61.68;99875.13;107858;1240;60424;-51
2023/03/15 05:19:41;;;;;;;9.10;3.20;;;;;;;5.06;61.59;99875.59;108192;1240;60448;-51
2023/03/15 05:22:27;;;;;;;7.50;2.60;;;;;;;5.21;61.43;99878.12;107976;1238;65928;-51
2023/03/15 05:25:14;;;;;;;7.80;4.00;;;;;;;5.33;61.30;99879.19;107769;1240;62369;-51
2023/03/15 05:28:07;;;;;;;15.70;7.20;;;;;;;5.46;61.22;99876.59;107700;1240;63954;-51
2023/03/15 05:31:01;;;;;;;7.60;3.20;;;;;;;5.59;61.12;99876.63;107733;1236;60435;-53
2023/03/15 05:33:53;;;;;;;14.80;7.40;;;;;;;5.69;60.87;99884.45;107924;1237;60382;-50
2023/03/15 05:36:36;;;;;;;9.70;3.50;;;;;;;5.73;60.50;99887.85;107945;1240;66036;-52
2023/03/15 05:39:15;;;;;;;13.30;8.00;;;;;;;5.74;60.51;99885.86;107879;1240;62439;-52
2023/03/15 05:42:05;;;;;;;10.00;3.30;;;;;;;5.73;60.39;99885.91;107631;1240;64755;-53
2023/03/15 05:44:48;;;;;;;10.80;7.40;;;;;;;5.68;60.42;99884.89;107632;1238;60403;-51
2023/03/15 05:47:36;;;;;;;7.90;3.20;;;;;;;5.64;60.68;99886.20;107829;1238;60544;-52
2023/03/15 05:50:16;;;;;;;11.20;7.00;;;;;;;5.67;60.76;99885.86;108604;1240;66879;-56
2023/03/15 05:52:58;;;;;;;8.20;2.70;;;;;;;5.71;60.86;99878.63;107720;1238;62423;-50
2023/03/15 05:55:42;;;;;;;13.00;8.00;;;;;;;5.74;60.83;99876.64;107872;1240;64750;-49
2023/03/15 05:58:11;;;;;;;8.60;3.00;;;;;;;5.77;60.75;99877.33;107708;1238;60430;-52
2023/03/15 06:01:03;;;;;;;6.10;2.80;;;;;;;5.85;60.72;99875.02;107565;1238;59396;-51
2023/03/15 06:03:57;;;;;;;10.80;3.10;;;;;;;5.98;60.55;99873.98;107837;1240;66348;-53
2023/03/15 06:06:25;;;;;;;12.40;7.80;;;;;;;6.11;60.57;99875.38;107831;1238;62550;-51
2023/03/15 06:08:52;;;;;;;12.90;7.40;;;;;;;6.22;60.59;99879.98;107685;1236;64832;-52
2023/03/15 06:11:20;;;;;;;9.10;3.50;;;;;;;6.31;60.51;99877.13;108021;1237;60552;-53
2023/03/15 06:13:48;;;;;;;14.00;8.90;;;;;;;6.37;60.46;99878.59;107625;1243;60443;-50
2023/03/15 06:16:25;;;;;;;13.90;8.00;;;;;;;6.44;60.39;99878.11;107757;1240;74441;-53
2023/03/15 06:18:55;;;;;;;13.70;8.40;;;;;;;6.53;60.28;99877.98;107841;1240;62483;-52
2023/03/15 06:21:22;;;;;;;9.40;3.50;;;;;;;6.61;60.17;99875.18;107853;1237;64743;-52
2023/03/15 06:23:56;;;;;;;10.80;3.30;;;;;;;6.67;60.00;99873.15;107651;1237;60424;-52
2023/03/15 06:26:23;;;;;;;8.10;3.30;;;;;;;6.74;59.94;99873.75;107639;1237;60486;-52
2023/03/15 06:28:52;;;;;;;14.20;8.10;;;;;;;6.78;59.91;99870.28;107616;1241;64843;-51
2023/03/15 06:31:22;;;;;;;16.10;8.90;;;;;;;6.86;59.91;99863.42;107551;1238;62791;-50
2023/03/15 06:33:54;;;;;;;13.50;8.20;;;;;;;6.97;59.78;99861.98;107785;1238;63883;-51
2023/03/15 06:36:23;;;;;;;13.70;8.20;;;;;;;7.10;59.48;99867.09;108116;1240;60487;-50
2023/03/15 06:38:53;;;;;;;13.20;8.20;;;;;;;7.26;59.14;99865.21;107887;1244;60686;-50
2023/03/15 06:41:20;;;;;;;11.60;7.70;;;;;;;7.42;58.83;99863.15;109096;1238;66118;-50
2023/03/15 06:43:50;;;;;;;15.30;8.30;;;;;;;7.54;58.70;99862.95;108469;1241;62413;-52
2023/03/15 06:46:18;;;;;;;11.80;7.40;;;;;;;7.64;58.48;99862.86;109423;1237;64789;-51
2023/03/15 06:48:45;;;;;;;11.20;7.80;;;;;;;7.74;58.13;99859.83;107639;1240;61440;-53
2023/03/15 06:51:15;;;;;;;11.30;7.30;;;;;;;7.80;57.81;99861.48;107610;1240;60948;-52
2023/03/15 06:53:42;;;;;;;13.20;8.20;;;;;;;7.84;57.50;99870.64;107779;1241;66038;-52
2023/03/15 06:56:09;;;;;;;9.50;3.10;;;;;;;7.85;57.45;99870.20;107507;1240;62522;-48
2023/03/15 06:58:37;;;;;;;13.40;8.00;;;;;;;7.86;57.36;99865.27;107493;1244;64818;-48
2023/03/15 07:01:06;;;;;;;13.60;7.50;;;;;;;7.87;57.26;99863.42;107205;1241;60557;-49
2023/03/15 07:03:34;;;;;;;13.90;7.90;;;;;;;7.86;56.90;99858.77;109212;1243;60587;-49
2023/03/15 07:06:01;;;;;;;12.60;8.10;;;;;;;7.83;56.84;99862.14;107662;1244;64848;-50
2023/03/15 07:08:29;;;;;;;13.10;8.00;;;;;;;7.81;57.07;99860.70;107202;1242;62443;-50
2023/03/15 07:10:56;;;;;;;13.70;8.30;;;;;;;7.80;57.07;99860.06;107206;1244;64921;-50
2023/03/15 07:13:23;;;;;;;12.80;7.80;;;;;;;7.82;57.18;99866.77;107210;1241;60548;-49
2023/03/15 07:56:26;;;;;;;11.90;7.60;;;;;;;8.61;55.89;99857.67;110201;1240;60442;-77
2023/03/15 07:58:53;;;;;;;12.90;7.70;;;;;;;8.70;55.70;99864.07;110458;1241;58746;-78
2023/03/15 08:01:20;;;;;;;13.70;8.30;;;;;;;8.77;55.62;99867.94;110323;1240;64922;-79
2023/03/15 08:03:47;;;;;;;12.90;7.90;;;;;;;8.81;55.25;99867.77;110141;1240;71866;-79
2023/03/15 08:06:16;;;;;;;14.00;8.10;;;;;;;8.83;55.05;99866.20;110440;1240;64847;-80
2023/03/15 08:08:43;;;;;;;11.70;7.70;;;;;;;8.87;54.94;99867.27;111239;1240;58184;-79
2023/03/15 08:11:10;;;;;;;13.60;7.70;;;;;;;8.91;55.02;99866.73;110672;1241;58147;-78
2023/03/15 08:13:40;;;;;;;13.10;7.50;;;;;;;8.92;54.85;99863.54;110205;1241;65952;-78
2023/03/15 08:16:08;;;;;;;12.30;6.90;;;;;;;8.90;54.94;99865.16;110405;1240;62319;-79
2023/03/15 08:18:45;;;;;;;12.10;7.30;;;;;;;8.85;54.94;99861.85;109872;1240;65003;-78
2023/03/15 08:21:12;;;;;;;14.50;9.20;;;;;;;8.82;54.92;99861.21;109768;1240;60542;-79
2023/03/15 08:23:39;;;;;;;15.00;9.10;;;;;;;8.82;55.22;99863.70;110176;1243;59312;-79
2023/03/15 08:30:19;;;;;;;17.40;11.80;;;;;;;8.96;55.35;99870.78;110403;1240;61733;-79
2023/03/15 08:32:48;;;;;;;15.40;10.40;;;;;;;9.11;55.30;99869.01;110558;1240;72980;-79
2023/03/15 08:35:15;;;;;;;17.00;9.70;;;;;;;9.22;55.10;99866.52;110508;1241;59874;-79
2023/03/15 08:37:46;;;;;;;18.00;11.00;;;;;;;9.30;54.72;99865.71;111065;1240;58323;-79
2023/03/15 08:40:14;;;;;;;18.40;10.60;;;;;;;9.36;54.60;99863.44;110657;1240;66079;-79
2023/03/15 08:42:41;;;;;;;16.40;10.50;;;;;;;9.43;54.67;99859.33;110758;1240;63002;-85
2023/03/15 08:45:10;;;;;;;17.50;11.80;;;;;;;9.52;54.59;99856.02;110496;1240;64006;-85
2023/03/15 08:47:40;;;;;;;17.10;10.80;;;;;;;9.56;54.54;99851.80;110872;1240;59219;-85
2023/03/15 08:50:25;;;;;;;15.80;9.70;;;;;;;9.61;54.59;99852.80;110543;1240;61990;-84
2023/03/15 08:52:52;;;;;;;14.30;8.80;;;;;;;9.64;54.57;99859.85;111008;1240;66086;-79
2023/03/15 08:55:18;;;;;;;14.60;9.20;;;;;;;9.67;54.57;99858.38;110116;1240;62573;-78
2023/03/15 08:57:45;;;;;;;15.50;9.00;;;;;;;9.72;54.50;99859.61;110547;1240;63755;-79
2023/03/15 09:00:19;;;;;;;14.30;9.30;;;;;;;9.77;54.41;99862.13;110401;1240;58933;-78
2023/03/15 09:02:50;;;;;;;16.90;10.80;;;;;;;9.81;54.41;99866.19;110747;1241;59041;-79
2023/03/15 09:05:17;;;;;;;14.40;9.70;;;;;;;9.85;54.32;99867.92;109702;1240;73992;-79
2023/03/15 09:07:44;;;;;;;17.40;11.00;;;;;;;9.89;54.05;99864.46;110432;1240;61726;-81
2023/03/15 09:10:14;;;;;;;18.70;10.90;;;;;;;9.92;53.99;99861.19;110107;1240;64908;-79
2023/03/15 09:12:45;;;;;;;19.70;11.30;;;;;;;9.96;54.21;99854.58;110000;1240;60514;-79
2023/03/15 09:15:12;;;;;;;21.10;12.10;;;;;;;10.01;54.11;99847.98;110202;1240;59127;-80
2023/03/15 09:17:42;;;;;;;22.20;11.10;;;;;;;10.05;53.78;99846.08;110286;1244;66208;-79
2023/03/15 09:20:13;;;;;;;15.80;10.40;;;;;;;10.08;53.70;99839.86;109999;1240;62442;-79
2023/03/15 09:22:43;;;;;;;15.70;9.90;;;;;;;10.11;53.79;99832.59;110850;1240;64029;-79
2023/03/15 09:25:10;;;;;;;18.40;10.30;;;;;;;10.18;53.86;99830.42;110317;1240;60437;-79
2023/03/15 09:27:40;;;;;;;16.60;10.50;;;;;;;10.24;53.62;99824.98;110645;1244;60927;-80
2023/03/15 09:30:14;;;;;;;15.00;9.60;;;;;;;10.29;53.76;99824.21;110509;1241;65000;-79
2023/03/15 09:32:43;;;;;;;14.50;9.00;;;;;;;10.34;53.74;99825.16;110277;1246;62852;-79
2023/03/15 09:35:13;;;;;;;20.10;11.90;;;;;;;10.41;53.85;99824.90;110823;1241;62679;-79
2023/03/15 09:37:41;;;;;;;13.20;8.40;;;;;;;10.50;53.65;99830.23;111032;1241;58487;-80
2023/03/15 09:40:23;;;;;;;14.90;8.30;;;;;;;10.55;53.49;99832.23;110635;1241;60559;-80
2023/03/15 09:43:02;;;;;;;14.10;8.70;;;;;;;10.61;53.38;99834.02;110881;1241;66072;-79
2023/03/15 09:45:51;;;;;;;13.30;8.10;;;;;;;10.68;53.43;99837.33;110736;1242;62426;-80
2023/03/15 09:48:45;;;;;;;16.70;8.50;;;;;;;10.77;53.33;99833.16;110585;1241;64917;-80
2023/03/15 09:51:38;;;;;;;14.90;9.00;;;;;;;10.88;52.93;99827.09;110059;1241;59244;-80
2023/03/15 09:54:31;;;;;;;17.70;10.00;;;;;;;10.95;52.56;99817.11;110138;1241;60370;-79
2023/03/15 09:57:02;;;;;;;15.30;9.60;;;;;;;11.05;52.25;99814.19;110271;1241;65116;-79
2023/03/15 09:59:35;;;;;;;15.60;9.00;;;;;;;11.09;51.89;99817.65;109835;1241;62542;-79
2023/03/15 10:02:12;;;;;;;14.20;9.50;;;;;;;11.04;51.99;99811.77;110590;1241;64972;-79
2023/03/15 10:04:41;;;;;;;15.20;8.60;;;;;;;11.09;51.90;99808.31;110248;1241;58761;-79
2023/03/15 10:07:12;;;;;;;22.20;10.90;;;;;;;11.15;51.89;99811.30;110980;1238;58323;-80
2023/03/15 10:09:39;;;;;;;17.70;10.00;;;;;;;11.16;51.87;99814.52;111136;1238;66151;-79
2023/03/15 10:12:14;;;;;;;18.00;9.30;;;;;;;11.22;51.92;99813.42;111254;1238;62612;-79
2023/03/15 10:15:21;;;;;;;16.20;9.70;;;;;;;11.29;52.10;99808.96;111063;1238;65315;-80
2023/03/15 10:17:58;;;;;;;14.60;9.70;;;;;;;11.35;51.55;99801.05;110351;1241;59191;-80
2023/03/15 10:20:35;;;;;;;14.70;9.00;;;;;;;11.37;51.30;99796.15;110920;1240;58307;-80
2023/03/15 10:23:15;;;;;;;13.20;8.50;;;;;;;11.39;51.21;99795.03;110821;1238;66221;-80
2023/03/15 10:25:46;;;;;;;14.50;8.60;;;;;;;11.39;51.23;99788.05;110788;1238;62553;-79
2023/03/15 10:28:26;;;;;;;15.00;8.50;;;;;;;11.40;51.32;99784.05;111171;1237;64704;-80
2023/03/15 10:30:59;;;;;;;13.00;8.30;;;;;;;11.45;51.57;99790.14;110986;1238;60538;-79
2023/03/15 10:33:34;;;;;;;12.50;8.40;;;;;;;11.52;51.42;99797.36;111080;1238;59624;-82
2023/03/15 10:36:01;;;;;;;12.10;8.80;;;;;;;11.59;51.14;99802.35;110695;1238;65016;-77
2023/03/15 10:38:38;;;;;;;24.00;11.30;;;;;;;11.64;51.04;99801.12;111053;1238;61864;-80
2023/03/15 10:41:05;;;;;;;69.50;50.10;;;;;;;11.73;50.89;99800.88;111352;1238;64996;-80
2023/03/15 10:43:35;;;;;;;15.00;9.50;;;;;;;11.83;50.81;99797.58;110941;1243;59036;-80
2023/03/15 10:46:21;;;;;;;13.40;8.80;;;;;;;11.94;50.85;99792.70;110835;1238;60399;-85
2023/03/15 10:48:57;;;;;;;12.80;7.50;;;;;;;12.08;50.80;99790.66;110499;1238;66222;-86
2023/03/15 10:51:28;;;;;;;15.50;7.90;;;;;;;12.21;50.23;99790.88;110734;1242;62518;-86
2023/03/15 10:53:58;;;;;;;15.40;8.50;;;;;;;12.29;49.89;99785.88;110687;1237;65065;-87
2023/03/15 10:56:27;;;;;;;14.20;8.60;;;;;;;12.36;49.58;99782.39;110805;1238;60410;-85
2023/03/15 10:58:54;;;;;;;17.20;8.90;;;;;;;12.41;49.33;99779.95;111281;1238;59282;-86
2023/03/15 11:01:39;;;;;;;15.30;9.00;;;;;;;12.50;49.29;99782.30;111322;1240;65866;-86
2023/03/15 11:04:06;;;;;;;16.70;9.20;;;;;;;12.58;49.11;99780.95;111323;1238;62504;-85
2023/03/15 11:06:45;;;;;;;12.40;8.30;;;;;;;12.66;48.85;99775.56;111475;1237;65333;-84
2023/03/15 11:09:16;;;;;;;14.90;8.80;;;;;;;12.77;48.80;99776.11;111294;1238;60457;-85
2023/03/15 11:11:54;;;;;;;16.00;8.20;;;;;;;12.89;48.56;99771.37;111232;1238;58142;-86
2023/03/15 11:14:25;;;;;;;14.00;9.00;;;;;;;13.01;48.34;99777.46;110945;1238;66266;-88
2023/03/15 11:16:55;;;;;;;13.60;8.40;;;;;;;13.07;48.16;99785.46;111295;1238;61512;-88
2023/03/15 11:19:27;;;;;;;11.30;7.80;;;;;;;13.10;47.99;99784.24;111454;1238;63944;-88
2023/03/15 11:21:56;;;;;;;13.20;7.40;;;;;;;13.10;47.90;99779.88;111227;1242;58154;-89
2023/03/15 11:24:27;;;;;;;12.90;9.00;;;;;;;13.05;48.22;99783.04;111580;1238;58267;-83
2023/03/15 11:26:55;;;;;;;12.20;7.70;;;;;;;12.99;48.40;99786.39;111927;1238;65100;-82
2023/03/15 11:29:28;;;;;;;12.80;7.10;;;;;;;13.00;48.68;99783.89;111882;1240;61272;-83
2023/03/15 11:31:55;;;;;;;20.90;10.90;;;;;;;13.06;48.90;99783.98;111798;1239;63922;-81
2023/03/15 11:34:28;;;;;;;16.30;9.10;;;;;;;13.11;48.89;99785.52;111608;1238;59153;-83
2023/03/15 11:36:58;;;;;;;16.70;9.90;;;;;;;13.16;48.96;99791.45;111878;1238;57666;-81
2023/03/15 11:39:44;;;;;;;21.60;10.30;;;;;;;13.21;49.01;99787.72;111465;1238;64831;-88
2023/03/15 11:42:17;;;;;;;;;;;;;;;13.29;48.86;99784.14;111348;1238;61406;-88
2023/03/15 11:44:46;;;;;;;16.00;8.70;;;;;;;13.37;48.62;99779.44;111491;1238;65189;-86
2023/03/15 11:47:17;;;;;;;14.80;9.10;;;;;;;13.46;48.68;99774.83;111579;1238;58199;-88
2023/03/15 11:49:54;;;;;;;18.50;9.90;;;;;;;13.58;48.36;99773.47;111549;1238;58983;-88
2023/03/15 11:52:22;;;;;;;16.10;9.10;;;;;;;13.67;48.11;99771.64;111537;1238;65069;-87
2023/03/15 11:54:57;;;;;;;14.10;8.90;;;;;;;13.74;48.03;99767.37;110428;1240;62451;-85
2023/03/15 11:57:27;;;;;;;18.50;10.20;;;;;;;13.85;48.24;99762.61;109983;1238;63626;-87
2023/03/15 12:00:21;;;;;;;13.90;8.40;;;;;;;13.85;48.06;99767.68;110733;1238;58165;-86
2023/03/15 12:02:50;;;;;;;14.90;7.40;;;;;;;13.93;47.50;99765.45;110830;1238;60875;-87
2023/03/15 12:05:58;;;;;;;12.30;6.60;;;;;;;14.01;47.12;99761.69;110754;1238;65130;-84
2023/03/15 12:08:33;;;;;;;14.50;5.70;;;;;;;14.07;46.37;99754.86;110480;1239;63275;-87
2023/03/15 12:11:00;;;;;;;11.00;6.70;;;;;;;14.11;46.24;99750.35;110612;1238;64909;-86
2023/03/15 12:13:29;;;;;;;10.60;6.30;;;;;;;14.19;45.96;99749.55;110237;1237;255078;-85
2023/03/15 12:28:08;;;;;;;9.30;5.70;;;;;;;14.51;45.55;99746.47;103054;1283;606021;-48
2023/03/15 12:30:41;;;;;;;9.00;5.40;;;;;;;14.92;44.62;99743.61;104446;1267;108916;-47
2023/03/15 12:33:15;;;;;;;11.90;6.40;;;;;;;14.94;44.63;99742.33;104419;1271;59255;-49
2023/03/15 12:35:43;;;;;;;10.90;5.70;;;;;;;14.92;44.65;99743.08;104785;1269;64598;-49
2023/03/15 12:38:19;;;;;;;9.20;5.40;;;;;;;14.84;44.69;99741.98;104603;1266;62557;-48
2023/03/15 12:40:51;;;;;;;;;;;;;;;14.78;44.92;99744.05;104781;1269;64067;-49
2023/03/15 12:44:00;;;;;;;7.70;5.20;;;;;;;14.76;45.23;99736.77;104674;1267;59295;-49
2023/03/15 12:46:40;;;;;;;10.50;6.00;;;;;;;14.80;45.10;99739.86;104449;1267;59320;-50
2023/03/15 12:49:17;;;;;;;10.90;6.00;;;;;;;14.83;44.97;99736.52;104776;1266;63318;-47
2023/03/15 12:51:59;;;;;;;8.60;5.70;;;;;;;14.90;45.07;99734.48;104650;1269;62363;-47
2023/03/15 12:54:40;;;;;;;10.60;6.80;;;;;;;14.92;44.71;99731.55;104625;1269;65054;-48
2023/03/15 12:57:18;;;;;;;10.10;6.20;;;;;;;14.87;44.55;99734.94;104760;1267;59761;-49
2023/03/15 12:59:54;;;;;;;10.20;6.30;;;;;;;14.81;44.83;99730.77;105686;1254;59657;-49